Airfield :
LOGIN :

Register | Disclaimer

   EN    FR    IT 

 










Legend :    VFR   Marginal VFR   IFR   Intensive IFR   Very Intensive IFR
Visi :
Ceiling :
>= 8 km
>= 3000ft
5 to 8 km
1000 to 3000 ft
1500m to 5 km
500 to 1000 ft
800 to 1500m
200 to 500 ft
< 800m
< 200 ft
Symbols :   Thunderstorms  Fog  Heavy snow  Heavy precipitations  Wind > 20 kt
SIGMETs :     Misc.  Thunderstorms  Icing  Turbulence  Mountain Waves  Volcanic Ashes






- Airport Elevation : 510 ft


LJCE - Cerklje

CURRENT METAR :
  • 221530Z 22003KT CAVOK 13/M01 Q1028 RMK BLU

EXPIRED METARs :
  • 221500Z 23006KT CAVOK 14/M02 Q1029 RMK BLU
  • 221430Z 21008KT 170V260 CAVOK 15/M03 Q1029 RMK BLU
  • 221400Z 21006KT 160V240 CAVOK 14/M04 Q1029 RMK BLU
  • 221330Z 22007KT 170V260 CAVOK 14/M03 Q1030 RMK BLU
  • 221300Z 22008KT 190V250 CAVOK 14/M04 Q1030 RMK BLU

TAF TAF LJCE
Valid from the 22 at 15:00 until the 23 at 00:00 UTC


221400Z 2215/2224 24005KT CAVOK
TEMPO 2215/2217 26010KT



MET'MAP, your aeronautical weather chart ! - Copyright ORBIFLY December 2007 - Disclaimer

ORBIFLY MET'MAP TEAM :

Programming & Development : Alexandra Zaïnal
Concept & original design : Baudouin d'Aumeries
Assistance for programming : Marc-Olivier Méhu
Technical & hardware support : Manuel Goepfert

Contact : metmap@orbifly.com




SOURCES & CREDITS :

   NOAA